Time;durP1;ratioP1;P1;durP2;ratioP2;P2;SDS_P1;SDS_P2;PMS_P1;PMS_P2;Temp;Humidity;BMP_temperature;BMP_pressure;BME280_temperature;BME280_humidity;BME280_pressure;Samples;Min_cycle;Max_cycle;Signal;HPM_P1;HPM_P2
2021/11/25 04:20:53;;;;;;;;;;;-1.60;99.90;;;;;;5113342;27;19912;-95
2021/11/25 15:21:20;;;;;;;;;;;3.10;90.80;;;;;;5110229;27;20289;-91
2021/11/25 15:23:45;;;;;;;;;;;3.00;92.10;;;;;;5110165;28;19912;-91
2021/11/25 15:26:11;;;;;;;;;;;3.00;93.00;;;;;;5111096;28;20283;-92
2021/11/25 15:34:40;;;;;;;;;;;3.30;92.60;;;;;;5150094;27;19922;-92
2021/11/25 15:37:06;;;;;;;;;;;3.30;93.20;;;;;;5129386;28;20210;-93
2021/11/25 15:39:31;;;;;;;;;;;3.30;94.00;;;;;;5131717;27;19922;-93
2021/11/25 15:41:57;;;;;;;;;;;3.40;94.70;;;;;;5134104;27;19929;-88
2021/11/25 15:44:22;;;;;;;;;;;3.40;95.30;;;;;;5149457;27;20375;-93
2021/11/25 15:46:48;;;;;;;;;;;3.50;95.20;;;;;;5150685;27;19915;-88
2021/11/25 15:49:13;;;;;;;;;;;3.60;95.30;;;;;;5151189;27;19908;-88
2021/11/25 15:51:39;;;;;;;;;;;3.60;95.60;;;;;;5133345;27;19914;-88
2021/11/25 15:54:05;;;;;;;;;;;3.70;95.80;;;;;;5146368;27;19969;-88
2021/11/25 15:56:30;;;;;;;;;;;3.80;95.50;;;;;;5132037;27;19911;-88
2021/11/25 15:58:56;;;;;;;;;;;3.80;95.30;;;;;;5133621;27;20006;-88
2021/11/25 16:01:22;;;;;;;;;;;3.90;94.70;;;;;;5150858;27;19976;-88
2021/11/25 16:03:47;;;;;;;;;;;3.90;94.30;;;;;;5152917;27;19908;-88
2021/11/25 16:06:14;;;;;;;;;;;3.90;93.70;;;;;;5152285;27;19908;-87
2021/11/25 16:08:40;;;;;;;;;;;3.90;93.80;;;;;;5153213;27;19907;-88
2021/11/25 16:11:05;;;;;;;;;;;4.00;93.70;;;;;;5130795;27;19917;-88
2021/11/25 16:13:39;;;;;;;;;;;4.00;93.90;;;;;;5152375;27;19915;-88
2021/11/25 16:21:00;;;;;;;;;;;4.00;92.30;;;;;;5114135;27;19923;-88
2021/11/25 16:23:26;;;;;;;;;;;3.90;92.60;;;;;;5109984;28;19998;-88
2021/11/25 16:25:51;;;;;;;;;;;3.90;92.90;;;;;;5090533;28;19912;-89
2021/11/25 16:28:17;;;;;;;;;;;3.90;93.20;;;;;;5091174;28;20425;-88
2021/11/25 16:30:50;;;;;;;;;;;3.90;93.00;;;;;;5089861;28;19908;-89
2021/11/25 16:33:18;;;;;;;;;;;3.90;93.30;;;;;;5091156;28;19908;-88
2021/11/25 16:35:44;;;;;;;;;;;3.90;93.20;;;;;;5091027;28;19965;-87
2021/11/25 16:38:11;;;;;;;;;;;4.00;92.60;;;;;;5092566;28;20381;-88
2021/11/25 16:40:39;;;;;;;;;;;4.00;92.60;;;;;;5091465;28;19957;-88
2021/11/25 16:43:05;;;;;;;;;;;4.00;92.90;;;;;;5091358;28;19908;-87
2021/11/25 16:45:30;;;;;;;;;;;4.00;93.10;;;;;;5090656;28;19951;-88
2021/11/25 16:51:00;;;;;;;;;;;4.10;92.60;;;;;;5088972;28;20009;-88
2021/11/25 16:53:27;;;;;;;;;;;4.10;92.80;;;;;;5089143;28;19975;-88
2021/11/25 16:55:53;;;;;;;;;;;4.00;92.50;;;;;;5081294;28;19913;-87
2021/11/25 16:58:20;;;;;;;;;;;4.10;92.50;;;;;;5091104;28;20011;-88
2021/11/25 17:25:24;;;;;;;;;;;3.30;89.60;;;;;;5111511;27;19918;-87
2021/11/25 17:27:50;;;;;;;;;;;3.30;90.80;;;;;;5111639;28;19999;-88
2021/11/25 17:30:16;;;;;;;;;;;3.30;91.80;;;;;;5111389;28;19916;-88
2021/11/25 17:32:43;;;;;;;;;;;3.30;92.00;;;;;;5111566;28;19908;-88
2021/11/25 17:35:10;;;;;;;;;;;3.40;92.40;;;;;;5111599;28;19931;-88
2021/11/25 17:37:37;;;;;;;;;;;3.40;92.60;;;;;;5109293;28;19919;-88
